sensor_id;sensor_type;location;lat;lon;timestamp;P1;durP1;ratioP1;P2;durP2;ratioP2
58992;SDS011;44782;0.000;0.000;2023-05-29T00:00:58;4.75;;;3.55;;
58992;SDS011;44782;0.000;0.000;2023-05-29T00:03:14;3.83;;;3.53;;
58992;SDS011;44782;0.000;0.000;2023-05-29T00:05:32;3.95;;;3.50;;
58992;SDS011;44782;0.000;0.000;2023-05-29T00:07:48;3.60;;;3.30;;
58992;SDS011;44782;0.000;0.000;2023-05-29T00:10:05;4.03;;;3.28;;
58992;SDS011;44782;0.000;0.000;2023-05-29T00:12:22;3.85;;;3.45;;
58992;SDS011;44782;0.000;0.000;2023-05-29T00:14:38;4.00;;;3.60;;
58992;SDS011;44782;0.000;0.000;2023-05-29T00:16:53;3.80;;;3.50;;
58992;SDS011;44782;0.000;0.000;2023-05-29T00:19:09;3.95;;;3.65;;
58992;SDS011;44782;0.000;0.000;2023-05-29T00:21:24;3.90;;;3.60;;
58992;SDS011;44782;0.000;0.000;2023-05-29T00:23:40;3.60;;;3.30;;
58992;SDS011;44782;0.000;0.000;2023-05-29T00:25:56;3.60;;;3.30;;
58992;SDS011;44782;0.000;0.000;2023-05-29T00:28:12;3.88;;;3.50;;
58992;SDS011;44782;0.000;0.000;2023-05-29T00:30:28;3.60;;;3.30;;
58992;SDS011;44782;0.000;0.000;2023-05-29T00:32:46;3.75;;;3.45;;
58992;SDS011;44782;0.000;0.000;2023-05-29T00:35:01;3.55;;;3.25;;
58992;SDS011;44782;0.000;0.000;2023-05-29T00:37:17;4.45;;;3.45;;
58992;SDS011;44782;0.000;0.000;2023-05-29T00:39:33;3.80;;;3.50;;
58992;SDS011;44782;0.000;0.000;2023-05-29T00:41:49;3.55;;;3.25;;
58992;SDS011;44782;0.000;0.000;2023-05-29T00:44:06;3.90;;;3.50;;
58992;SDS011;44782;0.000;0.000;2023-05-29T00:46:21;3.80;;;3.50;;
58992;SDS011;44782;0.000;0.000;2023-05-29T00:48:37;4.00;;;3.38;;
58992;SDS011;44782;0.000;0.000;2023-05-29T00:50:53;4.00;;;3.60;;
58992;SDS011;44782;0.000;0.000;2023-05-29T00:53:09;3.92;;;3.30;;
58992;SDS011;44782;0.000;0.000;2023-05-29T00:55:24;4.20;;;3.33;;
58992;SDS011;44782;0.000;0.000;2023-05-29T00:57:40;3.50;;;3.20;;
58992;SDS011;44782;0.000;0.000;2023-05-29T00:59:56;4.10;;;3.65;;
58992;SDS011;44782;0.000;0.000;2023-05-29T01:02:14;3.55;;;3.25;;
58992;SDS011;44782;0.000;0.000;2023-05-29T01:04:31;3.33;;;3.08;;
58992;SDS011;44782;0.000;0.000;2023-05-29T01:06:49;3.80;;;3.40;;
58992;SDS011;44782;0.000;0.000;2023-05-29T01:09:04;3.65;;;3.35;;
58992;SDS011;44782;0.000;0.000;2023-05-29T01:11:31;3.85;;;3.55;;
58992;SDS011;44782;0.000;0.000;2023-05-29T01:13:52;3.47;;;3.17;;
58992;SDS011;44782;0.000;0.000;2023-05-29T01:16:59;3.75;;;3.45;;
58992;SDS011;44782;0.000;0.000;2023-05-29T01:19:16;3.78;;;3.40;;
58992;SDS011;44782;0.000;0.000;2023-05-29T01:29:06;3.88;;;3.55;;
58992;SDS011;44782;0.000;0.000;2023-05-29T01:31:23;3.58;;;3.28;;
58992;SDS011;44782;0.000;0.000;2023-05-29T01:33:41;3.40;;;3.10;;
58992;SDS011;44782;0.000;0.000;2023-05-29T01:35:57;3.17;;;2.97;;
58992;SDS011;44782;0.000;0.000;2023-05-29T01:38:12;3.50;;;3.20;;
58992;SDS011;44782;0.000;0.000;2023-05-29T01:40:28;3.55;;;3.25;;
58992;SDS011;44782;0.000;0.000;2023-05-29T01:42:46;3.85;;;3.30;;
58992;SDS011;44782;0.000;0.000;2023-05-29T01:45:02;3.78;;;3.20;;
58992;SDS011;44782;0.000;0.000;2023-05-29T01:47:21;3.60;;;3.30;;
58992;SDS011;44782;0.000;0.000;2023-05-29T01:49:37;3.45;;;3.15;;
58992;SDS011;44782;0.000;0.000;2023-05-29T01:51:54;3.17;;;2.92;;
58992;SDS011;44782;0.000;0.000;2023-05-29T01:54:10;3.10;;;2.83;;
58992;SDS011;44782;0.000;0.000;2023-05-29T01:56:26;3.72;;;3.42;;
58992;SDS011;44782;0.000;0.000;2023-05-29T01:58:42;3.50;;;3.20;;
58992;SDS011;44782;0.000;0.000;2023-05-29T02:01:02;3.50;;;3.20;;
58992;SDS011;44782;0.000;0.000;2023-05-29T02:03:18;3.45;;;3.15;;
58992;SDS011;44782;0.000;0.000;2023-05-29T02:05:34;3.45;;;3.15;;
58992;SDS011;44782;0.000;0.000;2023-05-29T02:10:13;3.20;;;2.90;;
58992;SDS011;44782;0.000;0.000;2023-05-29T02:12:29;3.42;;;3.13;;
58992;SDS011;44782;0.000;0.000;2023-05-29T02:14:45;3.70;;;3.30;;
58992;SDS011;44782;0.000;0.000;2023-05-29T02:17:01;3.47;;;3.17;;
58992;SDS011;44782;0.000;0.000;2023-05-29T02:19:21;3.50;;;3.15;;
58992;SDS011;44782;0.000;0.000;2023-05-29T02:21:40;3.47;;;3.17;;
58992;SDS011;44782;0.000;0.000;2023-05-29T02:23:56;3.38;;;3.00;;
58992;SDS011;44782;0.000;0.000;2023-05-29T02:26:12;3.40;;;3.10;;
58992;SDS011;44782;0.000;0.000;2023-05-29T02:28:29;3.97;;;2.97;;
58992;SDS011;44782;0.000;0.000;2023-05-29T02:30:45;3.40;;;3.10;;
58992;SDS011;44782;0.000;0.000;2023-05-29T02:33:01;3.42;;;3.13;;
58992;SDS011;44782;0.000;0.000;2023-05-29T02:35:16;3.03;;;2.75;;
58992;SDS011;44782;0.000;0.000;2023-05-29T02:37:35;3.35;;;2.97;;
58992;SDS011;44782;0.000;0.000;2023-05-29T02:39:51;3.38;;;3.03;;
58992;SDS011;44782;0.000;0.000;2023-05-29T02:42:07;3.35;;;3.08;;
58992;SDS011;44782;0.000;0.000;2023-05-29T02:44:23;3.45;;;3.15;;
58992;SDS011;44782;0.000;0.000;2023-05-29T02:46:39;2.97;;;2.78;;
58992;SDS011;44782;0.000;0.000;2023-05-29T02:48:55;3.53;;;3.17;;
58992;SDS011;44782;0.000;0.000;2023-05-29T02:51:10;2.92;;;2.72;;
58992;SDS011;44782;0.000;0.000;2023-05-29T02:53:26;3.65;;;2.90;;
58992;SDS011;44782;0.000;0.000;2023-05-29T02:55:42;3.17;;;2.88;;
58992;SDS011;44782;0.000;0.000;2023-05-29T02:57:57;3.30;;;3.00;;
58992;SDS011;44782;0.000;0.000;2023-05-29T03:00:14;3.35;;;2.92;;
58992;SDS011;44782;0.000;0.000;2023-05-29T03:02:30;2.95;;;2.65;;
58992;SDS011;44782;0.000;0.000;2023-05-29T03:04:46;3.13;;;2.83;;
58992;SDS011;44782;0.000;0.000;2023-05-29T03:07:05;3.30;;;3.00;;
58992;SDS011;44782;0.000;0.000;2023-05-29T03:09:21;2.88;;;2.67;;
58992;SDS011;44782;0.000;0.000;2023-05-29T03:11:37;3.03;;;2.72;;
58992;SDS011;44782;0.000;0.000;2023-05-29T03:13:55;3.72;;;2.90;;
58992;SDS011;44782;0.000;0.000;2023-05-29T03:16:11;3.08;;;2.88;;
58992;SDS011;44782;0.000;0.000;2023-05-29T03:18:27;3.42;;;3.05;;
58992;SDS011;44782;0.000;0.000;2023-05-29T03:20:42;3.30;;;3.08;;
58992;SDS011;44782;0.000;0.000;2023-05-29T03:22:59;2.83;;;2.55;;
58992;SDS011;44782;0.000;0.000;2023-05-29T03:25:15;3.75;;;2.83;;
58992;SDS011;44782;0.000;0.000;2023-05-29T03:27:31;3.53;;;3.20;;
58992;SDS011;44782;0.000;0.000;2023-05-29T03:29:47;3.25;;;2.95;;
58992;SDS011;44782;0.000;0.000;2023-05-29T03:32:03;3.22;;;2.92;;
58992;SDS011;44782;0.000;0.000;2023-05-29T03:34:19;3.13;;;2.72;;
58992;SDS011;44782;0.000;0.000;2023-05-29T03:36:35;3.03;;;2.72;;
58992;SDS011;44782;0.000;0.000;2023-05-29T03:38:53;3.78;;;2.90;;
58992;SDS011;44782;0.000;0.000;2023-05-29T03:41:09;3.20;;;2.90;;
58992;SDS011;44782;0.000;0.000;2023-05-29T03:43:25;3.47;;;3.17;;
58992;SDS011;44782;0.000;0.000;2023-05-29T03:45:41;2.83;;;2.63;;
58992;SDS011;44782;0.000;0.000;2023-05-29T03:47:56;3.78;;;3.00;;
58992;SDS011;44782;0.000;0.000;2023-05-29T03:50:12;3.10;;;2.80;;
58992;SDS011;44782;0.000;0.000;2023-05-29T03:52:30;3.55;;;2.97;;
58992;SDS011;44782;0.000;0.000;2023-05-29T03:54:45;3.13;;;2.75;;
58992;SDS011;44782;0.000;0.000;2023-05-29T03:57:01;3.10;;;2.80;;
58992;SDS011;44782;0.000;0.000;2023-05-29T03:59:17;3.20;;;2.85;;
58992;SDS011;44782;0.000;0.000;2023-05-29T04:01:32;3.40;;;3.10;;
58992;SDS011;44782;0.000;0.000;2023-05-29T04:03:48;2.95;;;2.75;;
58992;SDS011;44782;0.000;0.000;2023-05-29T04:06:04;3.45;;;3.13;;
58992;SDS011;44782;0.000;0.000;2023-05-29T04:08:20;3.13;;;2.85;;
58992;SDS011;44782;0.000;0.000;2023-05-29T04:10:36;3.85;;;3.15;;
58992;SDS011;44782;0.000;0.000;2023-05-29T04:12:51;3.53;;;3.22;;
58992;SDS011;44782;0.000;0.000;2023-05-29T04:15:07;3.53;;;3.08;;
58992;SDS011;44782;0.000;0.000;2023-05-29T04:17:23;3.03;;;2.80;;
58992;SDS011;44782;0.000;0.000;2023-05-29T04:19:39;3.20;;;2.90;;
58992;SDS011;44782;0.000;0.000;2023-05-29T04:21:55;3.47;;;3.17;;
58992;SDS011;44782;0.000;0.000;2023-05-29T04:24:11;3.30;;;3.00;;
58992;SDS011;44782;0.000;0.000;2023-05-29T04:26:26;3.13;;;2.83;;
58992;SDS011;44782;0.000;0.000;2023-05-29T04:28:42;3.33;;;3.03;;
58992;SDS011;44782;0.000;0.000;2023-05-29T04:30:58;3.75;;;2.95;;
58992;SDS011;44782;0.000;0.000;2023-05-29T04:33:16;3.63;;;3.15;;
58992;SDS011;44782;0.000;0.000;2023-05-29T04:35:33;3.33;;;3.00;;
58992;SDS011;44782;0.000;0.000;2023-05-29T04:37:50;3.10;;;2.80;;
58992;SDS011;44782;0.000;0.000;2023-05-29T04:40:06;3.45;;;2.95;;
58992;SDS011;44782;0.000;0.000;2023-05-29T04:42:24;3.05;;;2.80;;
58992;SDS011;44782;0.000;0.000;2023-05-29T04:44:39;2.70;;;2.50;;
58992;SDS011;44782;0.000;0.000;2023-05-29T04:46:56;3.20;;;2.80;;
58992;SDS011;44782;0.000;0.000;2023-05-29T04:49:12;3.60;;;2.83;;
58992;SDS011;44782;0.000;0.000;2023-05-29T04:51:28;3.38;;;2.90;;
58992;SDS011;44782;0.000;0.000;2023-05-29T04:53:45;3.10;;;2.90;;
58992;SDS011;44782;0.000;0.000;2023-05-29T04:56:01;3.25;;;2.88;;
58992;SDS011;44782;0.000;0.000;2023-05-29T04:58:17;3.58;;;2.80;;
58992;SDS011;44782;0.000;0.000;2023-05-29T05:00:32;2.92;;;2.72;;
58992;SDS011;44782;0.000;0.000;2023-05-29T05:02:49;3.20;;;2.90;;
58992;SDS011;44782;0.000;0.000;2023-05-29T05:05:06;3.30;;;3.00;;
58992;SDS011;44782;0.000;0.000;2023-05-29T05:07:21;3.28;;;2.97;;
58992;SDS011;44782;0.000;0.000;2023-05-29T05:09:37;3.28;;;3.00;;
58992;SDS011;44782;0.000;0.000;2023-05-29T05:11:53;3.22;;;3.00;;
58992;SDS011;44782;0.000;0.000;2023-05-29T05:14:08;3.38;;;3.08;;
58992;SDS011;44782;0.000;0.000;2023-05-29T05:16:24;3.20;;;3.00;;
58992;SDS011;44782;0.000;0.000;2023-05-29T05:18:40;3.60;;;2.97;;
58992;SDS011;44782;0.000;0.000;2023-05-29T05:20:55;3.42;;;3.15;;
58992;SDS011;44782;0.000;0.000;2023-05-29T05:23:11;3.47;;;3.17;;
58992;SDS011;44782;0.000;0.000;2023-05-29T05:25:27;3.40;;;3.10;;
58992;SDS011;44782;0.000;0.000;2023-05-29T05:27:43;3.30;;;3.00;;
58992;SDS011;44782;0.000;0.000;2023-05-29T05:29:58;2.70;;;2.50;;
58992;SDS011;44782;0.000;0.000;2023-05-29T05:32:14;3.50;;;3.05;;
58992;SDS011;44782;0.000;0.000;2023-05-29T05:34:30;3.55;;;2.90;;
58992;SDS011;44782;0.000;0.000;2023-05-29T05:36:46;3.03;;;2.80;;
58992;SDS011;44782;0.000;0.000;2023-05-29T05:39:01;2.92;;;2.72;;
58992;SDS011;44782;0.000;0.000;2023-05-29T05:41:17;3.13;;;2.88;;
58992;SDS011;44782;0.000;0.000;2023-05-29T05:43:33;3.58;;;3.28;;
58992;SDS011;44782;0.000;0.000;2023-05-29T05:45:48;3.60;;;3.28;;
58992;SDS011;44782;0.000;0.000;2023-05-29T05:48:04;3.20;;;2.90;;
58992;SDS011;44782;0.000;0.000;2023-05-29T05:50:20;3.35;;;3.10;;
58992;SDS011;44782;0.000;0.000;2023-05-29T05:52:36;3.38;;;2.88;;
58992;SDS011;44782;0.000;0.000;2023-05-29T05:54:52;3.28;;;2.72;;
58992;SDS011;44782;0.000;0.000;2023-05-29T05:57:07;3.00;;;2.80;;
58992;SDS011;44782;0.000;0.000;2023-05-29T05:59:23;2.92;;;2.72;;
58992;SDS011;44782;0.000;0.000;2023-05-29T06:01:39;3.60;;;2.88;;
58992;SDS011;44782;0.000;0.000;2023-05-29T06:03:56;2.90;;;2.70;;
58992;SDS011;44782;0.000;0.000;2023-05-29T06:06:12;3.15;;;2.85;;
58992;SDS011;44782;0.000;0.000;2023-05-29T06:08:27;2.90;;;2.70;;
58992;SDS011;44782;0.000;0.000;2023-05-29T06:10:44;3.15;;;2.92;;
58992;SDS011;44782;0.000;0.000;2023-05-29T06:13:00;2.75;;;2.55;;
58992;SDS011;44782;0.000;0.000;2023-05-29T06:15:16;3.17;;;2.88;;
58992;SDS011;44782;0.000;0.000;2023-05-29T06:17:32;3.60;;;2.72;;
58992;SDS011;44782;0.000;0.000;2023-05-29T06:19:47;3.17;;;2.47;;
58992;SDS011;44782;0.000;0.000;2023-05-29T06:22:03;3.15;;;2.85;;
58992;SDS011;44782;0.000;0.000;2023-05-29T06:24:20;3.20;;;2.90;;
58992;SDS011;44782;0.000;0.000;2023-05-29T06:26:36;3.40;;;3.10;;
58992;SDS011;44782;0.000;0.000;2023-05-29T06:28:52;2.97;;;2.70;;
58992;SDS011;44782;0.000;0.000;2023-05-29T06:31:08;3.13;;;2.83;;
58992;SDS011;44782;0.000;0.000;2023-05-29T06:33:24;3.25;;;2.95;;
58992;SDS011;44782;0.000;0.000;2023-05-29T06:35:40;2.90;;;2.70;;
58992;SDS011;44782;0.000;0.000;2023-05-29T06:37:55;2.90;;;2.70;;
58992;SDS011;44782;0.000;0.000;2023-05-29T06:40:12;3.45;;;3.15;;
58992;SDS011;44782;0.000;0.000;2023-05-29T06:42:28;3.10;;;2.90;;
58992;SDS011;44782;0.000;0.000;2023-05-29T06:44:46;3.47;;;3.00;;
58992;SDS011;44782;0.000;0.000;2023-05-29T06:47:02;2.90;;;2.70;;
58992;SDS011;44782;0.000;0.000;2023-05-29T06:49:18;2.90;;;2.70;;
58992;SDS011;44782;0.000;0.000;2023-05-29T06:51:33;2.80;;;2.50;;
58992;SDS011;44782;0.000;0.000;2023-05-29T06:53:50;2.95;;;2.75;;
58992;SDS011;44782;0.000;0.000;2023-05-29T06:56:06;2.75;;;2.55;;
58992;SDS011;44782;0.000;0.000;2023-05-29T06:58:21;3.28;;;2.83;;
58992;SDS011;44782;0.000;0.000;2023-05-29T07:00:37;2.90;;;2.63;;
58992;SDS011;44782;0.000;0.000;2023-05-29T07:02:53;2.92;;;2.67;;
58992;SDS011;44782;0.000;0.000;2023-05-29T07:05:08;2.90;;;2.70;;
58992;SDS011;44782;0.000;0.000;2023-05-29T07:07:24;3.45;;;2.83;;
58992;SDS011;44782;0.000;0.000;2023-05-29T07:09:40;3.05;;;2.80;;
58992;SDS011;44782;0.000;0.000;2023-05-29T07:11:56;3.30;;;3.00;;
58992;SDS011;44782;0.000;0.000;2023-05-29T07:14:11;3.15;;;2.95;;
58992;SDS011;44782;0.000;0.000;2023-05-29T07:16:27;2.83;;;2.63;;
58992;SDS011;44782;0.000;0.000;2023-05-29T07:18:43;3.10;;;2.80;;
58992;SDS011;44782;0.000;0.000;2023-05-29T07:20:59;2.95;;;2.75;;
58992;SDS011;44782;0.000;0.000;2023-05-29T07:23:15;2.97;;;2.72;;
58992;SDS011;44782;0.000;0.000;2023-05-29T07:25:31;3.20;;;2.90;;
58992;SDS011;44782;0.000;0.000;2023-05-29T07:27:47;2.95;;;2.75;;
58992;SDS011;44782;0.000;0.000;2023-05-29T07:30:03;3.17;;;2.90;;
58992;SDS011;44782;0.000;0.000;2023-05-29T07:32:20;2.58;;;2.38;;
58992;SDS011;44782;0.000;0.000;2023-05-29T07:34:36;3.00;;;2.80;;
58992;SDS011;44782;0.000;0.000;2023-05-29T07:37:02;3.35;;;3.05;;
58992;SDS011;44782;0.000;0.000;2023-05-29T07:39:19;2.95;;;2.75;;
58992;SDS011;44782;0.000;0.000;2023-05-29T07:41:38;2.95;;;2.60;;
58992;SDS011;44782;0.000;0.000;2023-05-29T07:43:54;3.05;;;2.75;;
58992;SDS011;44782;0.000;0.000;2023-05-29T07:46:10;3.05;;;2.70;;
58992;SDS011;44782;0.000;0.000;2023-05-29T07:48:26;3.00;;;2.67;;
58992;SDS011;44782;0.000;0.000;2023-05-29T07:50:41;2.85;;;2.65;;
58992;SDS011;44782;0.000;0.000;2023-05-29T07:52:57;3.25;;;2.95;;
58992;SDS011;44782;0.000;0.000;2023-05-29T07:55:14;3.05;;;2.85;;
58992;SDS011;44782;0.000;0.000;2023-05-29T07:57:29;3.25;;;2.95;;
58992;SDS011;44782;0.000;0.000;2023-05-29T07:59:45;3.40;;;3.10;;
58992;SDS011;44782;0.000;0.000;2023-05-29T08:02:04;3.40;;;3.10;;
58992;SDS011;44782;0.000;0.000;2023-05-29T08:04:21;3.65;;;3.35;;
58992;SDS011;44782;0.000;0.000;2023-05-29T08:06:36;3.88;;;3.58;;
58992;SDS011;44782;0.000;0.000;2023-05-29T08:08:52;3.97;;;3.47;;
58992;SDS011;44782;0.000;0.000;2023-05-29T08:11:08;5.47;;;4.00;;
58992;SDS011;44782;0.000;0.000;2023-05-29T08:13:23;5.10;;;3.85;;
58992;SDS011;44782;0.000;0.000;2023-05-29T08:15:39;4.68;;;3.90;;
58992;SDS011;44782;0.000;0.000;2023-05-29T08:17:55;4.45;;;4.00;;
58992;SDS011;44782;0.000;0.000;2023-05-29T08:20:10;4.95;;;4.43;;
58992;SDS011;44782;0.000;0.000;2023-05-29T08:22:29;5.60;;;3.95;;
58992;SDS011;44782;0.000;0.000;2023-05-29T08:24:45;5.82;;;4.28;;
58992;SDS011;44782;0.000;0.000;2023-05-29T08:27:01;5.18;;;4.28;;
58992;SDS011;44782;0.000;0.000;2023-05-29T08:29:17;5.20;;;4.15;;
58992;SDS011;44782;0.000;0.000;2023-05-29T08:31:33;4.60;;;4.03;;
58992;SDS011;44782;0.000;0.000;2023-05-29T08:33:49;5.20;;;3.92;;
58992;SDS011;44782;0.000;0.000;2023-05-29T08:36:04;5.25;;;3.90;;
58992;SDS011;44782;0.000;0.000;2023-05-29T08:38:20;5.97;;;4.18;;
58992;SDS011;44782;0.000;0.000;2023-05-29T08:40:36;4.90;;;4.40;;
58992;SDS011;44782;0.000;0.000;2023-05-29T08:45:30;7.40;;;4.38;;
58992;SDS011;44782;0.000;0.000;2023-05-29T08:47:52;5.47;;;4.50;;
58992;SDS011;44782;0.000;0.000;2023-05-29T08:50:08;4.70;;;4.28;;
58992;SDS011;44782;0.000;0.000;2023-05-29T08:52:25;4.70;;;4.20;;
58992;SDS011;44782;0.000;0.000;2023-05-29T08:54:43;5.80;;;4.40;;
58992;SDS011;44782;0.000;0.000;2023-05-29T08:57:00;4.70;;;4.30;;
58992;SDS011;44782;0.000;0.000;2023-05-29T08:59:16;4.78;;;4.28;;
58992;SDS011;44782;0.000;0.000;2023-05-29T09:01:33;4.85;;;4.35;;
58992;SDS011;44782;0.000;0.000;2023-05-29T09:03:50;4.85;;;4.35;;
58992;SDS011;44782;0.000;0.000;2023-05-29T09:06:06;5.38;;;4.40;;
58992;SDS011;44782;0.000;0.000;2023-05-29T09:08:22;5.18;;;4.38;;
58992;SDS011;44782;0.000;0.000;2023-05-29T09:10:39;5.30;;;4.38;;
58992;SDS011;44782;0.000;0.000;2023-05-29T09:12:59;6.60;;;4.40;;
58992;SDS011;44782;0.000;0.000;2023-05-29T09:15:21;5.15;;;4.30;;
58992;SDS011;44782;0.000;0.000;2023-05-29T09:17:38;5.03;;;4.18;;
58992;SDS011;44782;0.000;0.000;2023-05-29T09:19:54;4.80;;;4.30;;
58992;SDS011;44782;0.000;0.000;2023-05-29T09:22:10;5.53;;;4.20;;
58992;SDS011;44782;0.000;0.000;2023-05-29T09:24:32;5.28;;;4.38;;
58992;SDS011;44782;0.000;0.000;2023-05-29T09:26:49;6.95;;;4.05;;
58992;SDS011;44782;0.000;0.000;2023-05-29T09:29:05;5.05;;;4.22;;
58992;SDS011;44782;0.000;0.000;2023-05-29T09:31:21;5.05;;;4.32;;
58992;SDS011;44782;0.000;0.000;2023-05-29T09:33:46;5.05;;;3.97;;
58992;SDS011;44782;0.000;0.000;2023-05-29T09:36:03;4.93;;;4.22;;
58992;SDS011;44782;0.000;0.000;2023-05-29T09:38:19;5.13;;;4.63;;
58992;SDS011;44782;0.000;0.000;2023-05-29T09:40:36;4.63;;;4.13;;
58992;SDS011;44782;0.000;0.000;2023-05-29T09:42:52;5.95;;;4.65;;
58992;SDS011;44782;0.000;0.000;2023-05-29T09:45:08;4.90;;;4.32;;
58992;SDS011;44782;0.000;0.000;2023-05-29T09:47:24;4.85;;;4.35;;
58992;SDS011;44782;0.000;0.000;2023-05-29T09:49:40;4.90;;;4.50;;
58992;SDS011;44782;0.000;0.000;2023-05-29T09:51:57;5.10;;;4.70;;
58992;SDS011;44782;0.000;0.000;2023-05-29T09:54:16;5.07;;;4.57;;
58992;SDS011;44782;0.000;0.000;2023-05-29T09:56:32;5.57;;;5.03;;
58992;SDS011;44782;0.000;0.000;2023-05-29T09:58:49;5.60;;;5.10;;
58992;SDS011;44782;0.000;0.000;2023-05-29T10:01:09;5.57;;;4.80;;
58992;SDS011;44782;0.000;0.000;2023-05-29T10:03:26;5.15;;;4.40;;
58992;SDS011;44782;0.000;0.000;2023-05-29T10:05:47;6.07;;;4.97;;
58992;SDS011;44782;0.000;0.000;2023-05-29T10:08:07;6.50;;;4.88;;
58992;SDS011;44782;0.000;0.000;2023-05-29T10:10:26;5.07;;;4.57;;
58992;SDS011;44782;0.000;0.000;2023-05-29T10:12:49;5.03;;;4.53;;
58992;SDS011;44782;0.000;0.000;2023-05-29T10:15:11;5.70;;;4.90;;
58992;SDS011;44782;0.000;0.000;2023-05-29T10:17:31;4.90;;;4.40;;
58992;SDS011;44782;0.000;0.000;2023-05-29T10:19:49;5.47;;;4.38;;
58992;SDS011;44782;0.000;0.000;2023-05-29T10:22:06;5.18;;;4.68;;
58992;SDS011;44782;0.000;0.000;2023-05-29T10:24:22;5.82;;;4.50;;
58992;SDS011;44782;0.000;0.000;2023-05-29T10:26:40;5.30;;;4.80;;
58992;SDS011;44782;0.000;0.000;2023-05-29T10:31:24;4.75;;;4.35;;
58992;SDS011;44782;0.000;0.000;2023-05-29T10:36:20;5.00;;;4.50;;
58992;SDS011;44782;0.000;0.000;2023-05-29T10:38:40;4.85;;;4.45;;
58992;SDS011;44782;0.000;0.000;2023-05-29T10:43:43;5.30;;;4.80;;
58992;SDS011;44782;0.000;0.000;2023-05-29T10:46:02;5.47;;;4.97;;
58992;SDS011;44782;0.000;0.000;2023-05-29T10:48:42;6.28;;;5.65;;
58992;SDS011;44782;0.000;0.000;2023-05-29T10:51:05;5.75;;;5.10;;
58992;SDS011;44782;0.000;0.000;2023-05-29T10:53:39;5.65;;;5.10;;
58992;SDS011;44782;0.000;0.000;2023-05-29T10:55:59;6.07;;;4.82;;
58992;SDS011;44782;0.000;0.000;2023-05-29T10:58:38;5.53;;;5.03;;
58992;SDS011;44782;0.000;0.000;2023-05-29T11:01:03;5.38;;;4.75;;
58992;SDS011;44782;0.000;0.000;2023-05-29T11:03:21;5.38;;;4.80;;
58992;SDS011;44782;0.000;0.000;2023-05-29T11:11:02;5.78;;;4.80;;
58992;SDS011;44782;0.000;0.000;2023-05-29T11:13:30;5.22;;;4.78;;
58992;SDS011;44782;0.000;0.000;2023-05-29T11:16:03;5.43;;;4.47;;
58992;SDS011;44782;0.000;0.000;2023-05-29T11:18:19;5.00;;;4.40;;
58992;SDS011;44782;0.000;0.000;2023-05-29T11:20:36;4.60;;;4.18;;
58992;SDS011;44782;0.000;0.000;2023-05-29T11:25:15;4.82;;;4.25;;
58992;SDS011;44782;0.000;0.000;2023-05-29T11:27:31;5.05;;;4.32;;
58992;SDS011;44782;0.000;0.000;2023-05-29T11:29:48;5.00;;;4.60;;
58992;SDS011;44782;0.000;0.000;2023-05-29T11:32:04;5.40;;;4.22;;
58992;SDS011;44782;0.000;0.000;2023-05-29T11:34:22;4.75;;;4.25;;
58992;SDS011;44782;0.000;0.000;2023-05-29T11:36:40;4.97;;;4.38;;
58992;SDS011;44782;0.000;0.000;2023-05-29T11:38:57;4.57;;;4.18;;
58992;SDS011;44782;0.000;0.000;2023-05-29T11:41:13;4.45;;;4.05;;
58992;SDS011;44782;0.000;0.000;2023-05-29T11:43:31;4.97;;;4.13;;
58992;SDS011;44782;0.000;0.000;2023-05-29T11:45:48;4.95;;;4.28;;
58992;SDS011;44782;0.000;0.000;2023-05-29T11:48:03;5.47;;;4.82;;
58992;SDS011;44782;0.000;0.000;2023-05-29T11:50:20;5.03;;;4.55;;
58992;SDS011;44782;0.000;0.000;2023-05-29T11:52:46;5.43;;;4.93;;
58992;SDS011;44782;0.000;0.000;2023-05-29T11:55:07;6.25;;;5.65;;
58992;SDS011;44782;0.000;0.000;2023-05-29T11:57:23;6.10;;;5.53;;
58992;SDS011;44782;0.000;0.000;2023-05-29T11:59:42;6.03;;;5.43;;
58992;SDS011;44782;0.000;0.000;2023-05-29T12:01:58;6.53;;;5.93;;
58992;SDS011;44782;0.000;0.000;2023-05-29T12:04:17;5.97;;;5.43;;
58992;SDS011;44782;0.000;0.000;2023-05-29T12:06:33;6.22;;;5.65;;
58992;SDS011;44782;0.000;0.000;2023-05-29T12:08:50;6.18;;;5.53;;
58992;SDS011;44782;0.000;0.000;2023-05-29T12:11:06;6.88;;;5.70;;
58992;SDS011;44782;0.000;0.000;2023-05-29T12:13:24;6.32;;;5.53;;
58992;SDS011;44782;0.000;0.000;2023-05-29T12:15:40;6.10;;;5.53;;
58992;SDS011;44782;0.000;0.000;2023-05-29T12:17:56;5.70;;;5.10;;
58992;SDS011;44782;0.000;0.000;2023-05-29T12:20:13;5.45;;;4.95;;
58992;SDS011;44782;0.000;0.000;2023-05-29T12:22:33;5.40;;;4.90;;
58992;SDS011;44782;0.000;0.000;2023-05-29T12:24:52;7.20;;;5.22;;
58992;SDS011;44782;0.000;0.000;2023-05-29T12:27:08;5.20;;;4.70;;
58992;SDS011;44782;0.000;0.000;2023-05-29T12:29:30;5.10;;;4.70;;
58992;SDS011;44782;0.000;0.000;2023-05-29T12:31:48;5.15;;;4.65;;
58992;SDS011;44782;0.000;0.000;2023-05-29T12:34:13;4.40;;;4.03;;
58992;SDS011;44782;0.000;0.000;2023-05-29T12:36:30;4.82;;;4.30;;
58992;SDS011;44782;0.000;0.000;2023-05-29T12:38:48;4.70;;;4.30;;
58992;SDS011;44782;0.000;0.000;2023-05-29T12:41:05;5.28;;;4.18;;
58992;SDS011;44782;0.000;0.000;2023-05-29T12:43:21;4.13;;;3.70;;
58992;SDS011;44782;0.000;0.000;2023-05-29T12:45:37;6.13;;;3.90;;
58992;SDS011;44782;0.000;0.000;2023-05-29T12:47:54;4.18;;;3.78;;
58992;SDS011;44782;0.000;0.000;2023-05-29T12:50:20;4.55;;;3.67;;
58992;SDS011;44782;0.000;0.000;2023-05-29T12:52:39;4.20;;;3.63;;
58992;SDS011;44782;0.000;0.000;2023-05-29T12:54:55;4.38;;;3.50;;
58992;SDS011;44782;0.000;0.000;2023-05-29T12:57:11;3.88;;;3.45;;
58992;SDS011;44782;0.000;0.000;2023-05-29T12:59:28;3.80;;;3.40;;
58992;SDS011;44782;0.000;0.000;2023-05-29T13:01:49;4.35;;;3.65;;
58992;SDS011;44782;0.000;0.000;2023-05-29T13:04:05;4.68;;;3.22;;
58992;SDS011;44782;0.000;0.000;2023-05-29T13:06:24;4.13;;;3.42;;
58992;SDS011;44782;0.000;0.000;2023-05-29T13:08:41;4.43;;;3.10;;
58992;SDS011;44782;0.000;0.000;2023-05-29T13:10:57;4.93;;;3.60;;
58992;SDS011;44782;0.000;0.000;2023-05-29T13:13:14;3.65;;;3.35;;
58992;SDS011;44782;0.000;0.000;2023-05-29T13:15:31;4.55;;;3.72;;
58992;SDS011;44782;0.000;0.000;2023-05-29T13:17:49;3.92;;;3.15;;
58992;SDS011;44782;0.000;0.000;2023-05-29T13:20:07;4.13;;;3.17;;
58992;SDS011;44782;0.000;0.000;2023-05-29T13:22:25;3.22;;;2.92;;
58992;SDS011;44782;0.000;0.000;2023-05-29T13:24:45;3.60;;;2.97;;
58992;SDS011;44782;0.000;0.000;2023-05-29T13:27:01;4.22;;;3.13;;
58992;SDS011;44782;0.000;0.000;2023-05-29T13:29:17;4.80;;;3.05;;
58992;SDS011;44782;0.000;0.000;2023-05-29T13:31:33;3.90;;;2.90;;
58992;SDS011;44782;0.000;0.000;2023-05-29T13:33:48;3.45;;;2.90;;
58992;SDS011;44782;0.000;0.000;2023-05-29T13:36:04;4.32;;;3.17;;
58992;SDS011;44782;0.000;0.000;2023-05-29T13:38:20;4.85;;;3.00;;
58992;SDS011;44782;0.000;0.000;2023-05-29T13:40:36;4.45;;;3.00;;
58992;SDS011;44782;0.000;0.000;2023-05-29T13:42:51;3.40;;;2.67;;
58992;SDS011;44782;0.000;0.000;2023-05-29T13:45:07;4.57;;;2.85;;
58992;SDS011;44782;0.000;0.000;2023-05-29T13:47:23;4.00;;;2.72;;
58992;SDS011;44782;0.000;0.000;2023-05-29T13:49:41;3.60;;;2.90;;
58992;SDS011;44782;0.000;0.000;2023-05-29T13:51:57;4.53;;;2.80;;
58992;SDS011;44782;0.000;0.000;2023-05-29T13:54:15;3.60;;;3.00;;
58992;SDS011;44782;0.000;0.000;2023-05-29T13:56:32;3.67;;;3.05;;
58992;SDS011;44782;0.000;0.000;2023-05-29T13:58:48;3.75;;;2.90;;
58992;SDS011;44782;0.000;0.000;2023-05-29T14:01:04;3.60;;;3.00;;
58992;SDS011;44782;0.000;0.000;2023-05-29T14:03:21;6.25;;;2.97;;
58992;SDS011;44782;0.000;0.000;2023-05-29T14:05:39;3.92;;;2.88;;
58992;SDS011;44782;0.000;0.000;2023-05-29T14:07:55;4.47;;;2.95;;
58992;SDS011;44782;0.000;0.000;2023-05-29T14:10:11;4.18;;;2.67;;
58992;SDS011;44782;0.000;0.000;2023-05-29T14:12:28;2.78;;;2.47;;
58992;SDS011;44782;0.000;0.000;2023-05-29T14:14:47;4.78;;;2.95;;
58992;SDS011;44782;0.000;0.000;2023-05-29T14:17:06;3.50;;;2.95;;
58992;SDS011;44782;0.000;0.000;2023-05-29T14:19:23;3.92;;;2.80;;
58992;SDS011;44782;0.000;0.000;2023-05-29T14:21:39;5.50;;;2.72;;
58992;SDS011;44782;0.000;0.000;2023-05-29T14:23:56;3.42;;;2.78;;
58992;SDS011;44782;0.000;0.000;2023-05-29T14:26:13;4.22;;;2.75;;